sensor_id;sensor_type;location;lat;lon;timestamp;pressure;altitude;pressure_sealevel;temperature;humidity
59055;BME280;44845;51.444;7.460;2023-02-19T00:02:14;99824.75;;;10.18;83.23
59055;BME280;44845;51.444;7.460;2023-02-19T00:04:40;99828.28;;;10.17;83.36
59055;BME280;44845;51.444;7.460;2023-02-19T00:07:05;99836.19;;;10.08;83.66
59055;BME280;44845;51.444;7.460;2023-02-19T00:09:30;99834.41;;;10.13;83.73
59055;BME280;44845;51.444;7.460;2023-02-19T00:11:56;99841.34;;;10.20;83.42
59055;BME280;44845;51.444;7.460;2023-02-19T00:14:21;99850.09;;;10.19;83.32
59055;BME280;44845;51.444;7.460;2023-02-19T00:16:47;99834.38;;;10.19;83.35
59055;BME280;44845;51.444;7.460;2023-02-19T00:19:15;99838.78;;;10.14;83.56
59055;BME280;44845;51.444;7.460;2023-02-19T00:21:41;99836.19;;;10.08;83.50
59055;BME280;44845;51.444;7.460;2023-02-19T00:24:09;99841.47;;;10.01;84.05
59055;BME280;44845;51.444;7.460;2023-02-19T00:26:39;99833.50;;;10.16;83.63
59055;BME280;44845;51.444;7.460;2023-02-19T00:29:05;99837.06;;;10.07;83.98
59055;BME280;44845;51.444;7.460;2023-02-19T00:31:32;99839.69;;;10.03;84.08
59055;BME280;44845;51.444;7.460;2023-02-19T00:34:00;99838.84;;;9.98;84.14
59055;BME280;44845;51.444;7.460;2023-02-19T00:36:27;99832.75;;;9.96;84.35
59055;BME280;44845;51.444;7.460;2023-02-19T00:38:52;99837.09;;;10.00;84.27
59055;BME280;44845;51.444;7.460;2023-02-19T00:41:19;99839.66;;;10.11;83.79
59055;BME280;44845;51.444;7.460;2023-02-19T00:43:55;99830.06;;;10.12;83.83
59055;BME280;44845;51.444;7.460;2023-02-19T00:46:23;99825.63;;;10.20;83.41
59055;BME280;44845;51.444;7.460;2023-02-19T00:48:49;99821.25;;;10.21;83.27
59055;BME280;44845;51.444;7.460;2023-02-19T00:51:15;99809.88;;;10.23;83.19
59055;BME280;44845;51.444;7.460;2023-02-19T00:53:41;99814.31;;;10.17;83.19
59055;BME280;44845;51.444;7.460;2023-02-19T00:56:07;99816.91;;;10.18;83.13
59055;BME280;44845;51.444;7.460;2023-02-19T00:58:33;99803.75;;;10.26;83.06
59055;BME280;44845;51.444;7.460;2023-02-19T01:00:58;99809.06;;;10.15;83.14
59055;BME280;44845;51.444;7.460;2023-02-19T01:03:23;99806.41;;;10.21;83.03
59055;BME280;44845;51.444;7.460;2023-02-19T01:05:49;99813.44;;;10.16;83.26
59055;BME280;44845;51.444;7.460;2023-02-19T01:08:15;99808.16;;;10.22;82.92
59055;BME280;44845;51.444;7.460;2023-02-19T01:10:41;99804.66;;;10.20;83.11
59055;BME280;44845;51.444;7.460;2023-02-19T01:13:06;99799.47;;;10.11;83.42
59055;BME280;44845;51.444;7.460;2023-02-19T01:15:32;99803.88;;;10.06;83.54
59055;BME280;44845;51.444;7.460;2023-02-19T01:17:58;99809.94;;;10.14;83.26
59055;BME280;44845;51.444;7.460;2023-02-19T01:20:23;99815.19;;;10.17;83.20
59055;BME280;44845;51.444;7.460;2023-02-19T01:22:48;99795.94;;;10.18;83.31
59055;BME280;44845;51.444;7.460;2023-02-19T01:25:14;99805.53;;;10.18;83.15
59055;BME280;44845;51.444;7.460;2023-02-19T01:27:39;99806.44;;;10.15;83.18
59055;BME280;44845;51.444;7.460;2023-02-19T01:30:05;99795.94;;;10.18;83.25
59055;BME280;44845;51.444;7.460;2023-02-19T01:32:30;99798.59;;;10.13;83.38
59055;BME280;44845;51.444;7.460;2023-02-19T01:34:55;99808.19;;;10.13;83.52
59055;BME280;44845;51.444;7.460;2023-02-19T01:37:21;99806.47;;;10.10;83.62
59055;BME280;44845;51.444;7.460;2023-02-19T01:39:46;99815.25;;;10.05;83.46
59055;BME280;44845;51.444;7.460;2023-02-19T01:42:14;99809.97;;;10.11;83.90
59055;BME280;44845;51.444;7.460;2023-02-19T01:47:09;99801.25;;;10.09;83.78
59055;BME280;44845;51.444;7.460;2023-02-19T01:49:39;99800.38;;;10.07;83.75
59055;BME280;44845;51.444;7.460;2023-02-19T01:52:21;99790.72;;;10.15;83.57
59055;BME280;44845;51.444;7.460;2023-02-19T01:54:49;99791.59;;;10.14;83.64
59055;BME280;44845;51.444;7.460;2023-02-19T01:57:18;99790.72;;;10.15;83.60
59055;BME280;44845;51.444;7.460;2023-02-19T01:59:47;99788.19;;;10.02;83.77
59055;BME280;44845;51.444;7.460;2023-02-19T02:02:14;99793.44;;;10.01;84.17
59055;BME280;44845;51.444;7.460;2023-02-19T02:04:40;99789.97;;;9.99;84.23
59055;BME280;44845;51.444;7.460;2023-02-19T02:07:05;99783.88;;;9.94;84.42
59055;BME280;44845;51.444;7.460;2023-02-19T02:09:52;99785.59;;;9.99;84.32
59055;BME280;44845;51.444;7.460;2023-02-19T02:12:37;99789.88;;;10.08;83.94
59055;BME280;44845;51.444;7.460;2023-02-19T02:15:02;99794.22;;;10.17;83.53
59055;BME280;44845;51.444;7.460;2023-02-19T02:23:02;99785.50;;;10.12;83.92
59055;BME280;44845;51.444;7.460;2023-02-19T02:31:05;99779.34;;;10.16;83.65
59055;BME280;44845;51.444;7.460;2023-02-19T02:33:41;99794.31;;;10.01;84.18
59055;BME280;44845;51.444;7.460;2023-02-19T02:36:18;99794.25;;;10.08;84.09
59055;BME280;44845;51.444;7.460;2023-02-19T02:38:47;99794.34;;;9.90;84.54
59055;BME280;44845;51.444;7.460;2023-02-19T02:41:14;99801.31;;;10.02;84.39
59055;BME280;44845;51.444;7.460;2023-02-19T02:43:40;99796.91;;;10.03;84.03
59055;BME280;44845;51.444;7.460;2023-02-19T02:46:05;99796.06;;;10.02;83.81
59055;BME280;44845;51.444;7.460;2023-02-19T02:48:50;99802.97;;;10.11;83.80
59055;BME280;44845;51.444;7.460;2023-02-19T02:51:37;99804.72;;;10.08;83.70
59055;BME280;44845;51.444;7.460;2023-02-19T02:54:11;99810.94;;;9.94;83.99
59055;BME280;44845;51.444;7.460;2023-02-19T02:56:57;99810.91;;;9.99;84.21
59055;BME280;44845;51.444;7.460;2023-02-19T02:59:25;99815.34;;;9.89;84.28
59055;BME280;44845;51.444;7.460;2023-02-19T03:01:59;99815.31;;;9.95;84.33
59055;BME280;44845;51.444;7.460;2023-02-19T03:07:57;99800.44;;;10.02;83.86
59055;BME280;44845;51.444;7.460;2023-02-19T03:13:08;99809.97;;;10.08;83.39
59055;BME280;44845;51.444;7.460;2023-02-19T03:15:59;99806.50;;;10.06;83.59
59055;BME280;44845;51.444;7.460;2023-02-19T03:18:48;99811.78;;;9.99;83.60
59055;BME280;44845;51.444;7.460;2023-02-19T03:21:37;99813.56;;;9.97;83.37
59055;BME280;44845;51.444;7.460;2023-02-19T03:24:04;99819.66;;;9.96;83.76
59055;BME280;44845;51.444;7.460;2023-02-19T03:26:50;99821.38;;;10.05;83.34
59055;BME280;44845;51.444;7.460;2023-02-19T03:29:20;99821.38;;;10.03;83.09
59055;BME280;44845;51.444;7.460;2023-02-19T03:31:48;99824.03;;;9.94;83.72
59055;BME280;44845;51.444;7.460;2023-02-19T03:34:19;99834.47;;;10.00;83.43
59055;BME280;44845;51.444;7.460;2023-02-19T03:37:07;99838.00;;;9.96;83.31
59055;BME280;44845;51.444;7.460;2023-02-19T03:39:34;99838.88;;;9.90;83.40
59055;BME280;44845;51.444;7.460;2023-02-19T03:42:12;99840.72;;;9.71;84.13
59055;BME280;44845;51.444;7.460;2023-02-19T03:47:44;99843.38;;;9.68;84.16
59055;BME280;44845;51.444;7.460;2023-02-19T03:50:20;99838.09;;;9.82;83.80
59055;BME280;44845;51.444;7.460;2023-02-19T03:53:17;99857.31;;;9.76;83.60
59055;BME280;44845;51.444;7.460;2023-02-19T03:58:40;99853.78;;;9.85;83.41
59055;BME280;44845;51.444;7.460;2023-02-19T04:01:14;99854.69;;;9.83;83.78
59055;BME280;44845;51.444;7.460;2023-02-19T04:04:05;99863.41;;;9.78;83.83
59055;BME280;44845;51.444;7.460;2023-02-19T04:06:34;99873.88;;;9.82;83.72
59055;BME280;44845;51.444;7.460;2023-02-19T04:09:03;99881.69;;;9.91;83.54
59055;BME280;44845;51.444;7.460;2023-02-19T04:11:31;99874.72;;;9.87;83.52
59055;BME280;44845;51.444;7.460;2023-02-19T04:14:12;99869.44;;;9.93;82.92
59055;BME280;44845;51.444;7.460;2023-02-19T04:16:43;99899.16;;;9.89;83.32
59055;BME280;44845;51.444;7.460;2023-02-19T04:19:13;99894.00;;;9.73;83.63
59055;BME280;44845;51.444;7.460;2023-02-19T04:21:40;99907.00;;;9.90;83.18
59055;BME280;44845;51.444;7.460;2023-02-19T04:24:10;99894.88;;;9.72;83.23
59055;BME280;44845;51.444;7.460;2023-02-19T04:26:37;99896.59;;;9.75;83.04
59055;BME280;44845;51.444;7.460;2023-02-19T04:29:04;99911.41;;;9.84;82.89
59055;BME280;44845;51.444;7.460;2023-02-19T04:31:30;99902.69;;;9.88;82.92
59055;BME280;44845;51.444;7.460;2023-02-19T04:33:59;99913.22;;;9.63;83.16
59055;BME280;44845;51.444;7.460;2023-02-19T04:36:25;99908.00;;;9.66;83.35
59055;BME280;44845;51.444;7.460;2023-02-19T04:38:50;99908.00;;;9.56;83.62
59055;BME280;44845;51.444;7.460;2023-02-19T04:41:16;99914.94;;;9.73;83.21
59055;BME280;44845;51.444;7.460;2023-02-19T04:43:41;99915.81;;;9.72;83.48
59055;BME280;44845;51.444;7.460;2023-02-19T04:46:06;99921.91;;;9.77;82.54
59055;BME280;44845;51.444;7.460;2023-02-19T04:48:32;99927.19;;;9.68;83.24
59055;BME280;44845;51.444;7.460;2023-02-19T04:50:57;99925.44;;;9.64;83.20
59055;BME280;44845;51.444;7.460;2023-02-19T04:53:23;99931.53;;;9.67;83.20
59055;BME280;44845;51.444;7.460;2023-02-19T04:55:48;99928.91;;;9.72;82.50
59055;BME280;44845;51.444;7.460;2023-02-19T04:58:17;99939.34;;;9.82;82.31
59055;BME280;44845;51.444;7.460;2023-02-19T05:00:42;99935.00;;;9.74;82.49
59055;BME280;44845;51.444;7.460;2023-02-19T05:03:08;99935.91;;;9.67;82.68
59055;BME280;44845;51.444;7.460;2023-02-19T05:05:33;99938.53;;;9.62;82.99
59055;BME280;44845;51.444;7.460;2023-02-19T05:07:59;99940.25;;;9.71;83.09
59055;BME280;44845;51.444;7.460;2023-02-19T05:10:24;99937.63;;;9.71;82.80
59055;BME280;44845;51.444;7.460;2023-02-19T05:12:49;99944.66;;;9.63;82.99
59055;BME280;44845;51.444;7.460;2023-02-19T05:15:16;99942.88;;;9.69;82.87
59055;BME280;44845;51.444;7.460;2023-02-19T05:17:41;99942.91;;;9.65;83.19
59055;BME280;44845;51.444;7.460;2023-02-19T05:20:07;99956.00;;;9.63;82.73
59055;BME280;44845;51.444;7.460;2023-02-19T05:22:32;99953.34;;;9.71;82.79
59055;BME280;44845;51.444;7.460;2023-02-19T05:24:58;99966.44;;;9.73;82.49
59055;BME280;44845;51.444;7.460;2023-02-19T05:27:23;99963.81;;;9.74;82.33
59055;BME280;44845;51.444;7.460;2023-02-19T05:29:48;99974.28;;;9.74;82.31
59055;BME280;44845;51.444;7.460;2023-02-19T05:32:14;99969.94;;;9.72;82.11
59055;BME280;44845;51.444;7.460;2023-02-19T05:34:39;99970.84;;;9.66;82.56
59055;BME280;44845;51.444;7.460;2023-02-19T05:37:04;99980.44;;;9.65;82.51
59055;BME280;44845;51.444;7.460;2023-02-19T05:39:30;99980.44;;;9.70;82.13
59055;BME280;44845;51.444;7.460;2023-02-19T05:41:55;99985.66;;;9.70;81.86
59055;BME280;44845;51.444;7.460;2023-02-19T05:44:20;99983.06;;;9.61;82.33
59055;BME280;44845;51.444;7.460;2023-02-19T05:46:46;99983.94;;;9.58;82.19
59055;BME280;44845;51.444;7.460;2023-02-19T05:49:11;99990.94;;;9.56;82.03
59055;BME280;44845;51.444;7.460;2023-02-19T05:51:36;100001.34;;;9.68;82.05
59055;BME280;44845;51.444;7.460;2023-02-19T05:54:02;99995.28;;;9.55;81.98
59055;BME280;44845;51.444;7.460;2023-02-19T05:56:40;100006.59;;;9.64;82.40
59055;BME280;44845;51.444;7.460;2023-02-19T05:59:19;100004.88;;;9.71;82.28
59055;BME280;44845;51.444;7.460;2023-02-19T06:01:45;99998.78;;;9.54;82.57
59055;BME280;44845;51.444;7.460;2023-02-19T06:04:11;100007.50;;;9.63;82.20
59055;BME280;44845;51.444;7.460;2023-02-19T06:06:38;100004.00;;;9.65;82.42
59055;BME280;44845;51.444;7.460;2023-02-19T06:09:05;100004.88;;;9.67;82.34
59055;BME280;44845;51.444;7.460;2023-02-19T06:11:30;100009.22;;;9.64;81.91
59055;BME280;44845;51.444;7.460;2023-02-19T06:13:56;100007.50;;;9.53;82.50
59055;BME280;44845;51.444;7.460;2023-02-19T06:16:21;100017.97;;;9.63;82.31
59055;BME280;44845;51.444;7.460;2023-02-19T06:18:47;100018.81;;;9.66;82.17
59055;BME280;44845;51.444;7.460;2023-02-19T06:21:14;100014.47;;;9.64;82.22
59055;BME280;44845;51.444;7.460;2023-02-19T06:23:40;100026.69;;;9.65;82.17
59055;BME280;44845;51.444;7.460;2023-02-19T06:28:30;100026.69;;;9.62;82.15
59055;BME280;44845;51.444;7.460;2023-02-19T06:30:57;100031.06;;;9.52;82.57
59055;BME280;44845;51.444;7.460;2023-02-19T06:33:23;100025.81;;;9.55;82.52
59055;BME280;44845;51.444;7.460;2023-02-19T06:35:48;100037.19;;;9.33;83.19
59055;BME280;44845;51.444;7.460;2023-02-19T06:38:13;100037.16;;;9.15;83.52
59055;BME280;44845;51.444;7.460;2023-02-19T06:40:38;100042.41;;;9.33;83.27
59055;BME280;44845;51.444;7.460;2023-02-19T06:43:04;100034.56;;;9.46;82.89
59055;BME280;44845;51.444;7.460;2023-02-19T06:45:29;100040.66;;;9.57;82.63
59055;BME280;44845;51.444;7.460;2023-02-19T06:47:54;100038.94;;;9.66;82.29
59055;BME280;44845;51.444;7.460;2023-02-19T06:50:20;100045.00;;;9.66;82.06
59055;BME280;44845;51.444;7.460;2023-02-19T06:52:45;100049.41;;;9.63;82.04
59055;BME280;44845;51.444;7.460;2023-02-19T06:55:10;100051.13;;;9.57;82.21
59055;BME280;44845;51.444;7.460;2023-02-19T06:57:36;100047.66;;;9.55;82.41
59055;BME280;44845;51.444;7.460;2023-02-19T07:00:01;100057.22;;;9.61;82.44
59055;BME280;44845;51.444;7.460;2023-02-19T07:02:28;100065.09;;;9.63;82.27
59055;BME280;44845;51.444;7.460;2023-02-19T07:04:53;100077.31;;;9.67;82.29
59055;BME280;44845;51.444;7.460;2023-02-19T07:07:18;100077.31;;;9.64;81.91
59055;BME280;44845;51.444;7.460;2023-02-19T07:09:44;100079.06;;;9.55;81.90
59055;BME280;44845;51.444;7.460;2023-02-19T07:12:09;100078.19;;;9.28;83.44
59055;BME280;44845;51.444;7.460;2023-02-19T07:14:34;100090.41;;;9.43;82.52
59055;BME280;44845;51.444;7.460;2023-02-19T07:17:00;100084.31;;;9.46;82.69
59055;BME280;44845;51.444;7.460;2023-02-19T07:19:25;100099.16;;;9.50;82.48
59055;BME280;44845;51.444;7.460;2023-02-19T07:21:50;100108.75;;;9.56;82.30
59055;BME280;44845;51.444;7.460;2023-02-19T07:24:16;100110.50;;;9.60;82.13
59055;BME280;44845;51.444;7.460;2023-02-19T07:26:41;100112.22;;;9.60;82.19
59055;BME280;44845;51.444;7.460;2023-02-19T07:29:08;100115.72;;;9.65;81.89
59055;BME280;44845;51.444;7.460;2023-02-19T07:31:34;100115.72;;;9.58;82.22
59055;BME280;44845;51.444;7.460;2023-02-19T07:33:59;100118.31;;;9.58;82.29
59055;BME280;44845;51.444;7.460;2023-02-19T07:36:24;100122.69;;;9.47;82.44
59055;BME280;44845;51.444;7.460;2023-02-19T07:38:56;100135.78;;;9.60;82.21
59055;BME280;44845;51.444;7.460;2023-02-19T07:41:23;100140.16;;;9.64;81.96
59055;BME280;44845;51.444;7.460;2023-02-19T07:43:48;100136.69;;;9.65;81.84
59055;BME280;44845;51.444;7.460;2023-02-19T07:46:14;100141.91;;;9.58;82.15
59055;BME280;44845;51.444;7.460;2023-02-19T07:48:41;100145.41;;;9.64;82.12
59055;BME280;44845;51.444;7.460;2023-02-19T07:51:10;100148.91;;;9.66;82.24
59055;BME280;44845;51.444;7.460;2023-02-19T07:53:36;100149.78;;;9.60;81.88
59055;BME280;44845;51.444;7.460;2023-02-19T07:56:04;100162.88;;;9.68;82.06
59055;BME280;44845;51.444;7.460;2023-02-19T07:58:30;100149.75;;;9.66;82.04
59055;BME280;44845;51.444;7.460;2023-02-19T08:00:56;100159.38;;;9.64;81.91
59055;BME280;44845;51.444;7.460;2023-02-19T08:03:22;100156.75;;;9.60;82.32
59055;BME280;44845;51.444;7.460;2023-02-19T08:05:47;100162.88;;;9.65;81.92
59055;BME280;44845;51.444;7.460;2023-02-19T08:08:15;100162.88;;;9.68;81.76
59055;BME280;44845;51.444;7.460;2023-02-19T08:10:41;100165.50;;;9.65;81.74
59055;BME280;44845;51.444;7.460;2023-02-19T08:13:26;100180.31;;;9.63;81.98
59055;BME280;44845;51.444;7.460;2023-02-19T08:15:55;100190.78;;;9.69;81.93
59055;BME280;44845;51.444;7.460;2023-02-19T08:18:33;100185.56;;;9.72;81.45
59055;BME280;44845;51.444;7.460;2023-02-19T08:20:58;100195.16;;;9.64;82.01
59055;BME280;44845;51.444;7.460;2023-02-19T08:23:25;100200.44;;;9.73;81.89
59055;BME280;44845;51.444;7.460;2023-02-19T08:25:51;100189.94;;;9.75;81.60
59055;BME280;44845;51.444;7.460;2023-02-19T08:28:17;100194.31;;;9.77;81.45
59055;BME280;44845;51.444;7.460;2023-02-19T08:30:45;100198.66;;;9.74;81.33
59055;BME280;44845;51.444;7.460;2023-02-19T08:33:13;100191.69;;;9.74;81.47
59055;BME280;44845;51.444;7.460;2023-02-19T08:35:39;100203.03;;;9.75;81.55
59055;BME280;44845;51.444;7.460;2023-02-19T08:38:05;100204.78;;;9.80;81.40
59055;BME280;44845;51.444;7.460;2023-02-19T08:40:32;100201.28;;;9.63;81.21
59055;BME280;44845;51.444;7.460;2023-02-19T08:43:02;100200.38;;;9.57;81.63
59055;BME280;44845;51.444;7.460;2023-02-19T08:45:28;100212.56;;;9.40;81.55
59055;BME280;44845;51.444;7.460;2023-02-19T08:47:53;100213.50;;;9.61;81.26
59055;BME280;44845;51.444;7.460;2023-02-19T08:50:19;100207.34;;;9.58;82.03
59055;BME280;44845;51.444;7.460;2023-02-19T08:52:44;100212.63;;;9.76;81.55
59055;BME280;44845;51.444;7.460;2023-02-19T08:55:09;100213.53;;;9.83;81.36
59055;BME280;44845;51.444;7.460;2023-02-19T08:57:35;100219.63;;;9.85;81.20
59055;BME280;44845;51.444;7.460;2023-02-19T09:00:02;100209.16;;;9.91;81.29
59055;BME280;44845;51.444;7.460;2023-02-19T09:02:28;100220.53;;;9.90;80.91
59055;BME280;44845;51.444;7.460;2023-02-19T09:04:55;100220.50;;;9.93;80.97
59055;BME280;44845;51.444;7.460;2023-02-19T09:07:20;100220.50;;;9.93;80.92
59055;BME280;44845;51.444;7.460;2023-02-19T09:09:47;100222.25;;;10.00;80.80
59055;BME280;44845;51.444;7.460;2023-02-19T09:12:13;100227.50;;;10.00;81.17
59055;BME280;44845;51.444;7.460;2023-02-19T09:14:38;100241.47;;;10.09;81.17
59055;BME280;44845;51.444;7.460;2023-02-19T09:17:05;100240.59;;;10.16;80.37
59055;BME280;44845;51.444;7.460;2023-02-19T09:19:32;100253.72;;;10.22;80.55
59055;BME280;44845;51.444;7.460;2023-02-19T09:21:57;100246.72;;;10.28;80.57
59055;BME280;44845;51.444;7.460;2023-02-19T09:24:23;100250.22;;;10.17;80.53
59055;BME280;44845;51.444;7.460;2023-02-19T09:26:50;100253.72;;;10.16;79.99
59055;BME280;44845;51.444;7.460;2023-02-19T09:29:16;100269.44;;;10.13;79.90
59055;BME280;44845;51.444;7.460;2023-02-19T09:31:42;100261.56;;;10.11;80.23
59055;BME280;44845;51.444;7.460;2023-02-19T09:34:08;100275.56;;;10.07;80.26
59055;BME280;44845;51.444;7.460;2023-02-19T09:36:33;100273.75;;;9.90;80.29
59055;BME280;44845;51.444;7.460;2023-02-19T09:38:59;100270.31;;;9.95;80.32
59055;BME280;44845;51.444;7.460;2023-02-19T09:41:42;100276.41;;;9.95;80.73
59055;BME280;44845;51.444;7.460;2023-02-19T09:44:15;100283.41;;;9.99;80.68
59055;BME280;44845;51.444;7.460;2023-02-19T09:46:46;100285.13;;;10.00;80.81
59055;BME280;44845;51.444;7.460;2023-02-19T09:49:20;100286.88;;;9.83;79.98
59055;BME280;44845;51.444;7.460;2023-02-19T09:51:58;100286.00;;;9.88;80.33
59055;BME280;44845;51.444;7.460;2023-02-19T09:54:29;100295.63;;;9.89;80.70
59055;BME280;44845;51.444;7.460;2023-02-19T09:56:59;100294.75;;;9.94;80.37
59055;BME280;44845;51.444;7.460;2023-02-19T09:59:28;100313.09;;;10.03;80.70
59055;BME280;44845;51.444;7.460;2023-02-19T10:04:41;100312.22;;;9.95;80.22
59055;BME280;44845;51.444;7.460;2023-02-19T10:07:14;100316.59;;;10.03;80.29
59055;BME280;44845;51.444;7.460;2023-02-19T10:09:40;100321.84;;;10.08;80.17
59055;BME280;44845;51.444;7.460;2023-02-19T10:12:17;100321.81;;;10.00;80.10
59055;BME280;44845;51.444;7.460;2023-02-19T10:14:49;100325.34;;;10.12;80.86
59055;BME280;44845;51.444;7.460;2023-02-19T10:17:27;100334.97;;;10.19;80.91
59055;BME280;44845;51.444;7.460;2023-02-19T10:19:55;100346.31;;;10.18;80.94
59055;BME280;44845;51.444;7.460;2023-02-19T10:22:21;100341.06;;;10.15;80.28
59055;BME280;44845;51.444;7.460;2023-02-19T10:24:51;100346.31;;;10.18;80.71
59055;BME280;44845;51.444;7.460;2023-02-19T10:27:17;100354.19;;;10.17;80.30
59055;BME280;44845;51.444;7.460;2023-02-19T10:29:43;100353.28;;;10.03;79.87
59055;BME280;44845;51.444;7.460;2023-02-19T10:32:15;100362.88;;;9.98;80.13
59055;BME280;44845;51.444;7.460;2023-02-19T10:34:43;100381.22;;;9.98;80.29
59055;BME280;44845;51.444;7.460;2023-02-19T10:37:16;100390.00;;;10.05;80.56
59055;BME280;44845;51.444;7.460;2023-02-19T10:39:44;100390.00;;;10.05;80.19
59055;BME280;44845;51.444;7.460;2023-02-19T10:42:21;100379.50;;;10.13;80.44
59055;BME280;44845;51.444;7.460;2023-02-19T10:44:55;100383.03;;;10.28;80.64
59055;BME280;44845;51.444;7.460;2023-02-19T10:47:25;100383.03;;;10.28;80.59
59055;BME280;44845;51.444;7.460;2023-02-19T10:49:52;100391.78;;;10.42;81.05
59055;BME280;44845;51.444;7.460;2023-02-19T10:52:29;100369.13;;;10.51;81.08
59055;BME280;44845;51.444;7.460;2023-02-19T10:55:14;100383.97;;;10.47;78.99
59055;BME280;44845;51.444;7.460;2023-02-19T10:57:39;100381.31;;;10.45;79.64
59055;BME280;44845;51.444;7.460;2023-02-19T11:02:40;100409.28;;;10.40;79.11
59055;BME280;44845;51.444;7.460;2023-02-19T11:05:16;100402.28;;;10.45;78.63
59055;BME280;44845;51.444;7.460;2023-02-19T11:07:53;100402.25;;;10.28;78.78
59055;BME280;44845;51.444;7.460;2023-02-19T11:10:29;100412.75;;;10.23;78.97
59055;BME280;44845;51.444;7.460;2023-02-19T11:13:02;100405.78;;;10.32;78.51
59055;BME280;44845;51.444;7.460;2023-02-19T11:15:29;100400.53;;;10.32;78.63
59055;BME280;44845;51.444;7.460;2023-02-19T11:18:06;100400.53;;;10.22;78.47
59055;BME280;44845;51.444;7.460;2023-02-19T11:20:52;100404.88;;;10.17;77.91
59055;BME280;44845;51.444;7.460;2023-02-19T11:23:27;100408.38;;;10.24;78.09
59055;BME280;44845;51.444;7.460;2023-02-19T11:25:54;100418.00;;;10.27;77.56
59055;BME280;44845;51.444;7.460;2023-02-19T11:28:40;100413.66;;;10.36;78.04
59055;BME280;44845;51.444;7.460;2023-02-19T11:36:39;100411.03;;;10.47;77.51
59055;BME280;44845;51.444;7.460;2023-02-19T11:39:29;100412.84;;;10.52;77.30
59055;BME280;44845;51.444;7.460;2023-02-19T11:44:44;100397.97;;;10.63;77.12
59055;BME280;44845;51.444;7.460;2023-02-19T11:47:29;100397.09;;;10.58;75.98
59055;BME280;44845;51.444;7.460;2023-02-19T11:55:22;100393.56;;;10.43;77.44
59055;BME280;44845;51.444;7.460;2023-02-19T12:07:00;100386.63;;;10.80;77.41
59055;BME280;44845;51.444;7.460;2023-02-19T12:15:38;100384.88;;;10.85;77.21
59055;BME280;44845;51.444;7.460;2023-02-19T12:26:26;100393.59;;;10.65;76.52
59055;BME280;44845;51.444;7.460;2023-02-19T12:37:43;100416.13;;;9.85;77.48
59055;BME280;44845;51.444;7.460;2023-02-19T12:45:27;100424.56;;;9.37;77.60
59055;BME280;44845;51.444;7.460;2023-02-19T12:48:12;100433.22;;;9.23;79.09
59055;BME280;44845;51.444;7.460;2023-02-19T12:50:40;100440.06;;;9.05;79.41
59055;BME280;44845;51.444;7.460;2023-02-19T12:56:04;100443.22;;;8.66;79.79
59055;BME280;44845;51.444;7.460;2023-02-19T13:01:57;100454.03;;;9.04;80.33
59055;BME280;44845;51.444;7.460;2023-02-19T13:07:27;100455.84;;;9.11;79.94
59055;BME280;44845;51.444;7.460;2023-02-19T13:09:58;100459.25;;;9.07;79.01
59055;BME280;44845;51.444;7.460;2023-02-19T13:12:33;100460.31;;;9.30;79.13
59055;BME280;44845;51.444;7.460;2023-02-19T13:15:14;100457.72;;;9.34;78.74
59055;BME280;44845;51.444;7.460;2023-02-19T13:17:44;100455.72;;;8.99;79.13
59055;BME280;44845;51.444;7.460;2023-02-19T13:20:34;100446.88;;;8.84;79.72
59055;BME280;44845;51.444;7.460;2023-02-19T13:37:04;100475.13;;;9.29;79.71
59055;BME280;44845;51.444;7.460;2023-02-19T13:39:30;100474.19;;;9.16;79.95
59055;BME280;44845;51.444;7.460;2023-02-19T13:41:56;100482.03;;;9.18;80.56
59055;BME280;44845;51.444;7.460;2023-02-19T13:44:28;100490.88;;;9.34;80.72
59055;BME280;44845;51.444;7.460;2023-02-19T13:46:54;100488.31;;;9.39;80.43
59055;BME280;44845;51.444;7.460;2023-02-19T13:49:44;100483.13;;;9.50;79.04
59055;BME280;44845;51.444;7.460;2023-02-19T14:00:56;100503.38;;;9.74;79.73
59055;BME280;44845;51.444;7.460;2023-02-19T14:06:00;100512.97;;;9.72;78.75
59055;BME280;44845;51.444;7.460;2023-02-19T14:08:49;100515.59;;;9.72;79.46
59055;BME280;44845;51.444;7.460;2023-02-19T14:11:17;100518.13;;;9.61;79.09
59055;BME280;44845;51.444;7.460;2023-02-19T14:19:42;100509.38;;;9.59;78.42
59055;BME280;44845;51.444;7.460;2023-02-19T14:22:00;100519.84;;;9.56;78.93
59055;BME280;44845;51.444;7.460;2023-02-19T14:24:26;100523.16;;;9.33;79.37
59055;BME280;44845;51.444;7.460;2023-02-19T14:26:52;100534.56;;;9.40;79.21
59055;BME280;44845;51.444;7.460;2023-02-19T14:29:20;100538.09;;;9.43;79.23
59055;BME280;44845;51.444;7.460;2023-02-19T14:31:46;100535.47;;;9.45;79.74
59055;BME280;44845;51.444;7.460;2023-02-19T14:34:19;100545.09;;;9.49;80.37
59055;BME280;44845;51.444;7.460;2023-02-19T14:36:58;100544.28;;;9.55;80.20
59055;BME280;44845;51.444;7.460;2023-02-19T14:39:28;100541.66;;;9.56;80.02
59055;BME280;44845;51.444;7.460;2023-02-19T14:41:58;100541.63;;;9.52;79.64
59055;BME280;44845;51.444;7.460;2023-02-19T14:44:27;100536.41;;;9.56;79.29
59055;BME280;44845;51.444;7.460;2023-02-19T14:46:57;100543.38;;;9.54;79.97
59055;BME280;44845;51.444;7.460;2023-02-19T14:52:05;100532.88;;;9.48;79.95
59055;BME280;44845;51.444;7.460;2023-02-19T14:54:39;100540.78;;;9.54;79.95
59055;BME280;44845;51.444;7.460;2023-02-19T14:57:12;100543.41;;;9.57;80.31
59055;BME280;44845;51.444;7.460;2023-02-19T14:59:39;100535.59;;;9.61;80.51
59055;BME280;44845;51.444;7.460;2023-02-19T15:02:15;100527.75;;;9.64;80.17
59055;BME280;44845;51.444;7.460;2023-02-19T15:04:41;100531.25;;;9.63;80.49
59055;BME280;44845;51.444;7.460;2023-02-19T15:07:08;100527.78;;;9.67;80.14
59055;BME280;44845;51.444;7.460;2023-02-19T15:09:41;100522.50;;;9.64;80.27
59055;BME280;44845;51.444;7.460;2023-02-19T15:12:15;100514.66;;;9.61;79.84
59055;BME280;44845;51.444;7.460;2023-02-19T15:14:41;100512.88;;;9.61;80.01
59055;BME280;44845;51.444;7.460;2023-02-19T15:17:24;100506.78;;;9.64;80.62
59055;BME280;44845;51.444;7.460;2023-02-19T15:19:50;100503.31;;;9.65;80.23